CheckWX is a tool to help pilots better visualize weather data.  It is not intended as a substitute for an official pre-flight weather briefing.

06:43:16 UTC

TJSJ TAF
Luis Munoz Marin International Airport
San Juan, Puerto Rico, USA
TJSJ 160524Z 1606/1706 VRB06KT P6SM VCSH SCT025 SCT050 FM161400 07016G23KT P6SM VCSH FEW025 SCT030 SCT040 FM162200 09012KT P6SM VCSH SCT025 SCT030 BKN060

Jun-16@
06:00 UTC

Jun-16 @ 06:00 UTC

Jun-16@
14:00 UTC

Jun-16 @ 14:00 UTC

TJSJ 160524Z 1606/1706 VRB06KT P6SM VCSH SCT025 SCT050
Wind
  • Variable at 6 KTS
Cloud Levels
  • Scattered at 2,500' AGL
  • Scattered at 5,000' AGL

Jun-16@
14:00 UTC

Jun-16 @ 14:00 UTC

Jun-16@
22:00 UTC

Jun-16 @ 22:00 UTC

FM161400 07016G23KT P6SM VCSH FEW025 SCT030 SCT040

From

From Standard forecast or significant change

Wind
  • 070° at 16 KTS
  • {Gusting to 23 KTS
Cloud Levels
  • Few at 2,500' AGL
  • Scattered at 3,000' AGL
  • Scattered at 4,000' AGL

Jun-16@
22:00 UTC

Jun-16 @ 22:00 UTC

Jun-17@
06:00 UTC

Jun-17 @ 06:00 UTC

FM162200 09012KT P6SM VCSH SCT025 SCT030 BKN060

From

From Standard forecast or significant change

Wind
  • 090° at 12 KTS
Cloud Levels
  • Scattered at 2,500' AGL
  • Scattered at 3,000' AGL
  • Broken at 6,000' AGL